sensor_id;sensor_type;location;lat;lon;timestamp;P1;durP1;ratioP1;P2;durP2;ratioP2
9178;SDS011;71287;48.414;11.478;2023-07-29T00:00:06;2.33;;;1.70;;
9178;SDS011;71287;48.414;11.478;2023-07-29T00:02:34;2.13;;;1.90;;
9178;SDS011;71287;48.414;11.478;2023-07-29T00:05:00;1.90;;;1.80;;
9178;SDS011;71287;48.414;11.478;2023-07-29T00:07:27;4.03;;;2.17;;
9178;SDS011;71287;48.414;11.478;2023-07-29T00:09:54;3.77;;;2.30;;
9178;SDS011;71287;48.414;11.478;2023-07-29T00:12:22;2.23;;;2.00;;
9178;SDS011;71287;48.414;11.478;2023-07-29T00:14:49;2.40;;;2.00;;
9178;SDS011;71287;48.414;11.478;2023-07-29T00:17:16;2.30;;;2.00;;
9178;SDS011;71287;48.414;11.478;2023-07-29T00:19:45;2.90;;;2.10;;
9178;SDS011;71287;48.414;11.478;2023-07-29T00:22:11;2.10;;;1.90;;
9178;SDS011;71287;48.414;11.478;2023-07-29T00:24:39;3.87;;;2.00;;
9178;SDS011;71287;48.414;11.478;2023-07-29T00:27:06;5.27;;;1.90;;
9178;SDS011;71287;48.414;11.478;2023-07-29T00:29:34;2.63;;;1.63;;
9178;SDS011;71287;48.414;11.478;2023-07-29T00:32:01;2.03;;;1.70;;
9178;SDS011;71287;48.414;11.478;2023-07-29T00:34:27;3.67;;;2.13;;
9178;SDS011;71287;48.414;11.478;2023-07-29T00:36:55;2.30;;;1.87;;
9178;SDS011;71287;48.414;11.478;2023-07-29T00:39:22;1.90;;;1.70;;
9178;SDS011;71287;48.414;11.478;2023-07-29T00:41:49;5.90;;;1.80;;
9178;SDS011;71287;48.414;11.478;2023-07-29T00:44:16;2.63;;;1.97;;
9178;SDS011;71287;48.414;11.478;2023-07-29T00:46:44;2.07;;;1.73;;
9178;SDS011;71287;48.414;11.478;2023-07-29T00:49:12;3.67;;;1.80;;
9178;SDS011;71287;48.414;11.478;2023-07-29T00:51:39;2.73;;;2.00;;
9178;SDS011;71287;48.414;11.478;2023-07-29T00:54:06;2.17;;;1.97;;
9178;SDS011;71287;48.414;11.478;2023-07-29T00:56:33;3.17;;;2.00;;
9178;SDS011;71287;48.414;11.478;2023-07-29T00:59:00;3.17;;;2.07;;
9178;SDS011;71287;48.414;11.478;2023-07-29T01:01:28;2.73;;;1.80;;
9178;SDS011;71287;48.414;11.478;2023-07-29T01:03:56;2.87;;;2.10;;
9178;SDS011;71287;48.414;11.478;2023-07-29T01:06:24;7.33;;;2.33;;
9178;SDS011;71287;48.414;11.478;2023-07-29T01:08:57;2.73;;;2.20;;
9178;SDS011;71287;48.414;11.478;2023-07-29T01:11:32;4.27;;;2.67;;
9178;SDS011;71287;48.414;11.478;2023-07-29T01:14:05;3.00;;;2.50;;
9178;SDS011;71287;48.414;11.478;2023-07-29T01:16:42;2.67;;;1.90;;
9178;SDS011;71287;48.414;11.478;2023-07-29T01:19:23;3.47;;;2.33;;
9178;SDS011;71287;48.414;11.478;2023-07-29T01:22:08;2.23;;;2.10;;
9178;SDS011;71287;48.414;11.478;2023-07-29T01:24:38;2.83;;;1.67;;
9178;SDS011;71287;48.414;11.478;2023-07-29T01:27:05;2.20;;;2.00;;
9178;SDS011;71287;48.414;11.478;2023-07-29T01:29:32;2.00;;;1.90;;
9178;SDS011;71287;48.414;11.478;2023-07-29T01:32:01;3.23;;;2.30;;
9178;SDS011;71287;48.414;11.478;2023-07-29T01:34:32;2.77;;;2.40;;
9178;SDS011;71287;48.414;11.478;2023-07-29T01:37:05;2.70;;;2.10;;
9178;SDS011;71287;48.414;11.478;2023-07-29T01:39:40;3.47;;;2.33;;
9178;SDS011;71287;48.414;11.478;2023-07-29T01:42:09;2.87;;;2.10;;
9178;SDS011;71287;48.414;11.478;2023-07-29T01:44:36;2.57;;;2.37;;
9178;SDS011;71287;48.414;11.478;2023-07-29T01:47:03;3.00;;;2.03;;
9178;SDS011;71287;48.414;11.478;2023-07-29T01:49:30;1.87;;;1.77;;
9178;SDS011;71287;48.414;11.478;2023-07-29T01:51:57;2.33;;;2.13;;
9178;SDS011;71287;48.414;11.478;2023-07-29T01:54:24;2.60;;;2.17;;
9178;SDS011;71287;48.414;11.478;2023-07-29T01:56:52;2.70;;;2.50;;
9178;SDS011;71287;48.414;11.478;2023-07-29T01:59:18;3.10;;;2.30;;
9178;SDS011;71287;48.414;11.478;2023-07-29T02:01:45;2.73;;;2.27;;
9178;SDS011;71287;48.414;11.478;2023-07-29T02:04:12;4.83;;;2.23;;
9178;SDS011;71287;48.414;11.478;2023-07-29T02:06:39;2.40;;;1.90;;
9178;SDS011;71287;48.414;11.478;2023-07-29T02:09:06;3.20;;;2.03;;
9178;SDS011;71287;48.414;11.478;2023-07-29T02:11:32;2.30;;;2.10;;
9178;SDS011;71287;48.414;11.478;2023-07-29T02:14:01;1.90;;;1.70;;
9178;SDS011;71287;48.414;11.478;2023-07-29T02:16:28;2.07;;;1.97;;
9178;SDS011;71287;48.414;11.478;2023-07-29T02:18:55;1.70;;;1.60;;
9178;SDS011;71287;48.414;11.478;2023-07-29T02:21:22;1.90;;;1.80;;
9178;SDS011;71287;48.414;11.478;2023-07-29T02:23:48;1.93;;;1.30;;
9178;SDS011;71287;48.414;11.478;2023-07-29T02:26:16;1.40;;;1.30;;
9178;SDS011;71287;48.414;11.478;2023-07-29T02:28:43;1.30;;;1.20;;
9178;SDS011;71287;48.414;11.478;2023-07-29T02:31:13;1.40;;;1.30;;
9178;SDS011;71287;48.414;11.478;2023-07-29T02:33:42;1.87;;;1.57;;
9178;SDS011;71287;48.414;11.478;2023-07-29T02:36:09;3.23;;;1.73;;
9178;SDS011;71287;48.414;11.478;2023-07-29T02:38:37;3.57;;;2.20;;
9178;SDS011;71287;48.414;11.478;2023-07-29T02:41:04;2.23;;;2.03;;
9178;SDS011;71287;48.414;11.478;2023-07-29T02:43:31;2.27;;;1.63;;
9178;SDS011;71287;48.414;11.478;2023-07-29T02:45:58;4.30;;;2.40;;
9178;SDS011;71287;48.414;11.478;2023-07-29T02:48:26;5.60;;;2.00;;
9178;SDS011;71287;48.414;11.478;2023-07-29T02:50:53;2.20;;;2.00;;
9178;SDS011;71287;48.414;11.478;2023-07-29T02:53:21;3.83;;;2.20;;
9178;SDS011;71287;48.414;11.478;2023-07-29T02:55:48;6.90;;;2.07;;
9178;SDS011;71287;48.414;11.478;2023-07-29T02:58:15;4.63;;;2.07;;
9178;SDS011;71287;48.414;11.478;2023-07-29T03:00:42;2.53;;;2.13;;
9178;SDS011;71287;48.414;11.478;2023-07-29T03:03:09;2.50;;;2.30;;
9178;SDS011;71287;48.414;11.478;2023-07-29T03:05:37;2.70;;;2.30;;
9178;SDS011;71287;48.414;11.478;2023-07-29T03:08:04;3.73;;;2.03;;
9178;SDS011;71287;48.414;11.478;2023-07-29T03:10:31;5.40;;;2.63;;
9178;SDS011;71287;48.414;11.478;2023-07-29T03:12:57;2.87;;;2.10;;
9178;SDS011;71287;48.414;11.478;2023-07-29T03:15:24;2.30;;;2.10;;
9178;SDS011;71287;48.414;11.478;2023-07-29T03:17:51;2.37;;;1.80;;
9178;SDS011;71287;48.414;11.478;2023-07-29T03:20:18;2.93;;;2.33;;
9178;SDS011;71287;48.414;11.478;2023-07-29T03:22:47;3.37;;;2.40;;
9178;SDS011;71287;48.414;11.478;2023-07-29T03:25:14;3.17;;;2.13;;
9178;SDS011;71287;48.414;11.478;2023-07-29T03:27:41;2.10;;;2.00;;
9178;SDS011;71287;48.414;11.478;2023-07-29T03:30:07;3.00;;;2.03;;
9178;SDS011;71287;48.414;11.478;2023-07-29T03:32:35;3.40;;;1.80;;
9178;SDS011;71287;48.414;11.478;2023-07-29T03:35:04;2.63;;;1.83;;
9178;SDS011;71287;48.414;11.478;2023-07-29T03:37:31;2.57;;;2.37;;
9178;SDS011;71287;48.414;11.478;2023-07-29T03:39:59;2.40;;;2.17;;
9178;SDS011;71287;48.414;11.478;2023-07-29T03:42:26;2.30;;;2.10;;
9178;SDS011;71287;48.414;11.478;2023-07-29T03:44:53;2.63;;;1.87;;
9178;SDS011;71287;48.414;11.478;2023-07-29T03:47:19;1.90;;;1.80;;
9178;SDS011;71287;48.414;11.478;2023-07-29T03:49:46;1.70;;;1.60;;
9178;SDS011;71287;48.414;11.478;2023-07-29T03:52:13;2.87;;;2.00;;
9178;SDS011;71287;48.414;11.478;2023-07-29T03:54:40;2.37;;;1.90;;
9178;SDS011;71287;48.414;11.478;2023-07-29T03:57:08;3.63;;;1.63;;
9178;SDS011;71287;48.414;11.478;2023-07-29T03:59:34;1.90;;;1.80;;
9178;SDS011;71287;48.414;11.478;2023-07-29T04:02:01;2.33;;;2.10;;
9178;SDS011;71287;48.414;11.478;2023-07-29T04:04:28;2.27;;;1.90;;
9178;SDS011;71287;48.414;11.478;2023-07-29T04:06:55;2.00;;;1.90;;
9178;SDS011;71287;48.414;11.478;2023-07-29T04:09:22;3.87;;;2.20;;
9178;SDS011;71287;48.414;11.478;2023-07-29T04:11:49;3.57;;;2.30;;
9178;SDS011;71287;48.414;11.478;2023-07-29T04:14:18;2.13;;;1.93;;
9178;SDS011;71287;48.414;11.478;2023-07-29T04:16:44;2.20;;;2.10;;
9178;SDS011;71287;48.414;11.478;2023-07-29T04:19:11;1.93;;;1.83;;
9178;SDS011;71287;48.414;11.478;2023-07-29T04:21:38;3.13;;;2.00;;
9178;SDS011;71287;48.414;11.478;2023-07-29T04:24:05;3.03;;;2.20;;
9178;SDS011;71287;48.414;11.478;2023-07-29T04:26:31;2.30;;;2.10;;
9178;SDS011;71287;48.414;11.478;2023-07-29T04:28:58;3.80;;;1.80;;
9178;SDS011;71287;48.414;11.478;2023-07-29T04:31:26;2.60;;;2.00;;
9178;SDS011;71287;48.414;11.478;2023-07-29T04:33:53;1.63;;;1.53;;
9178;SDS011;71287;48.414;11.478;2023-07-29T04:36:20;3.07;;;2.00;;
9178;SDS011;71287;48.414;11.478;2023-07-29T04:38:46;3.13;;;2.10;;
9178;SDS011;71287;48.414;11.478;2023-07-29T04:41:13;2.63;;;2.03;;
9178;SDS011;71287;48.414;11.478;2023-07-29T04:43:40;3.07;;;1.90;;
9178;SDS011;71287;48.414;11.478;2023-07-29T04:46:07;3.80;;;2.33;;
9178;SDS011;71287;48.414;11.478;2023-07-29T04:48:35;2.90;;;2.27;;
9178;SDS011;71287;48.414;11.478;2023-07-29T04:51:02;2.63;;;2.23;;
9178;SDS011;71287;48.414;11.478;2023-07-29T04:53:29;2.20;;;2.00;;
9178;SDS011;71287;48.414;11.478;2023-07-29T04:55:56;2.20;;;2.00;;
9178;SDS011;71287;48.414;11.478;2023-07-29T04:58:22;2.33;;;1.70;;
9178;SDS011;71287;48.414;11.478;2023-07-29T05:00:49;3.13;;;1.83;;
9178;SDS011;71287;48.414;11.478;2023-07-29T05:03:16;4.13;;;2.10;;
9178;SDS011;71287;48.414;11.478;2023-07-29T05:05:44;2.13;;;2.00;;
9178;SDS011;71287;48.414;11.478;2023-07-29T05:08:11;2.43;;;2.03;;
9178;SDS011;71287;48.414;11.478;2023-07-29T05:10:37;2.00;;;1.90;;
9178;SDS011;71287;48.414;11.478;2023-07-29T05:13:04;3.40;;;2.00;;
9178;SDS011;71287;48.414;11.478;2023-07-29T05:15:31;1.80;;;1.70;;
9178;SDS011;71287;48.414;11.478;2023-07-29T05:17:58;1.60;;;1.50;;
9178;SDS011;71287;48.414;11.478;2023-07-29T05:20:24;2.97;;;1.80;;
9178;SDS011;71287;48.414;11.478;2023-07-29T05:22:52;2.53;;;1.60;;
9178;SDS011;71287;48.414;11.478;2023-07-29T05:25:19;1.97;;;1.40;;
9178;SDS011;71287;48.414;11.478;2023-07-29T05:27:46;1.33;;;1.23;;
9178;SDS011;71287;48.414;11.478;2023-07-29T05:30:13;3.25;;;1.40;;
9178;SDS011;71287;48.414;11.478;2023-07-29T05:32:39;2.40;;;1.48;;
9178;SDS011;71287;48.414;11.478;2023-07-29T05:35:06;1.63;;;1.40;;
9178;SDS011;71287;48.414;11.478;2023-07-29T05:37:33;1.85;;;1.30;;
9178;SDS011;71287;48.414;11.478;2023-07-29T05:40:02;2.03;;;1.33;;
9178;SDS011;71287;48.414;11.478;2023-07-29T05:42:29;1.25;;;1.15;;
9178;SDS011;71287;48.414;11.478;2023-07-29T05:44:56;1.42;;;1.10;;
9178;SDS011;71287;48.414;11.478;2023-07-29T05:47:22;1.50;;;1.08;;
9178;SDS011;71287;48.414;11.478;2023-07-29T05:49:49;1.17;;;1.08;;
9178;SDS011;71287;48.414;11.478;2023-07-29T05:52:16;1.40;;;1.30;;
9178;SDS011;71287;48.414;11.478;2023-07-29T05:54:43;1.33;;;1.15;;
9178;SDS011;71287;48.414;11.478;2023-07-29T05:57:11;1.70;;;1.30;;
9178;SDS011;71287;48.414;11.478;2023-07-29T05:59:38;1.23;;;1.10;;
9178;SDS011;71287;48.414;11.478;2023-07-29T06:02:05;1.20;;;1.10;;
9178;SDS011;71287;48.414;11.478;2023-07-29T06:04:32;1.90;;;1.27;;
9178;SDS011;71287;48.414;11.478;2023-07-29T06:06:59;1.35;;;1.25;;
9178;SDS011;71287;48.414;11.478;2023-07-29T06:09:26;3.45;;;1.30;;
9178;SDS011;71287;48.414;11.478;2023-07-29T06:11:52;1.20;;;1.10;;
9178;SDS011;71287;48.414;11.478;2023-07-29T06:14:20;1.25;;;1.02;;
9178;SDS011;71287;48.414;11.478;2023-07-29T06:16:47;2.35;;;1.13;;
9178;SDS011;71287;48.414;11.478;2023-07-29T06:19:14;1.20;;;1.10;;
9178;SDS011;71287;48.414;11.478;2023-07-29T06:21:41;3.03;;;1.35;;
9178;SDS011;71287;48.414;11.478;2023-07-29T06:24:08;1.02;;;1.02;;
9178;SDS011;71287;48.414;11.478;2023-07-29T06:26:35;2.05;;;1.15;;
9178;SDS011;71287;48.414;11.478;2023-07-29T06:29:01;1.40;;;1.30;;
9178;SDS011;71287;48.414;11.478;2023-07-29T06:31:30;1.85;;;1.02;;
9178;SDS011;71287;48.414;11.478;2023-07-29T06:33:57;2.03;;;0.95;;
9178;SDS011;71287;48.414;11.478;2023-07-29T06:36:24;1.33;;;1.02;;
9178;SDS011;71287;48.414;11.478;2023-07-29T06:38:51;2.47;;;1.10;;
9178;SDS011;71287;48.414;11.478;2023-07-29T06:41:18;1.63;;;1.10;;
9178;SDS011;71287;48.414;11.478;2023-07-29T06:43:44;2.35;;;1.10;;
9178;SDS011;71287;48.414;11.478;2023-07-29T06:46:11;1.40;;;1.00;;
9178;SDS011;71287;48.414;11.478;2023-07-29T06:48:40;2.83;;;1.00;;
9178;SDS011;71287;48.414;11.478;2023-07-29T06:51:06;1.63;;;1.10;;
9178;SDS011;71287;48.414;11.478;2023-07-29T06:53:33;1.30;;;1.20;;
9178;SDS011;71287;48.414;11.478;2023-07-29T06:56:00;1.40;;;0.98;;
9178;SDS011;71287;48.414;11.478;2023-07-29T06:58:27;6.53;;;1.95;;
9178;SDS011;71287;48.414;11.478;2023-07-29T07:00:53;1.45;;;1.35;;
9178;SDS011;71287;48.414;11.478;2023-07-29T07:03:20;2.63;;;1.30;;
9178;SDS011;71287;48.414;11.478;2023-07-29T07:05:48;1.60;;;1.30;;
9178;SDS011;71287;48.414;11.478;2023-07-29T07:08:16;1.60;;;1.13;;
9178;SDS011;71287;48.414;11.478;2023-07-29T07:10:42;4.75;;;1.35;;
9178;SDS011;71287;48.414;11.478;2023-07-29T07:13:09;1.80;;;1.10;;
9178;SDS011;71287;48.414;11.478;2023-07-29T07:15:36;2.75;;;1.10;;
9178;SDS011;71287;48.414;11.478;2023-07-29T07:18:03;2.10;;;1.35;;
9178;SDS011;71287;48.414;11.478;2023-07-29T07:20:29;1.40;;;1.30;;
9178;SDS011;71287;48.414;11.478;2023-07-29T07:22:57;2.13;;;1.40;;
9178;SDS011;71287;48.414;11.478;2023-07-29T07:25:24;1.27;;;1.17;;
9178;SDS011;71287;48.414;11.478;2023-07-29T07:27:51;1.20;;;1.00;;
9178;SDS011;71287;48.414;11.478;2023-07-29T07:30:18;1.17;;;1.05;;
9178;SDS011;71287;48.414;11.478;2023-07-29T07:32:45;2.60;;;1.10;;
9178;SDS011;71287;48.414;11.478;2023-07-29T07:35:11;1.77;;;1.10;;
9178;SDS011;71287;48.414;11.478;2023-07-29T07:37:38;1.67;;;1.58;;
9178;SDS011;71287;48.414;11.478;2023-07-29T07:40:07;1.83;;;1.05;;
9178;SDS011;71287;48.414;11.478;2023-07-29T07:42:34;1.13;;;1.10;;
9178;SDS011;71287;48.414;11.478;2023-07-29T07:45:01;1.75;;;1.20;;
9178;SDS011;71287;48.414;11.478;2023-07-29T07:47:28;1.77;;;1.10;;
9178;SDS011;71287;48.414;11.478;2023-07-29T07:49:54;2.58;;;1.30;;
9178;SDS011;71287;48.414;11.478;2023-07-29T07:52:21;1.33;;;1.00;;
9178;SDS011;71287;48.414;11.478;2023-07-29T07:54:51;1.00;;;1.00;;
9178;SDS011;71287;48.414;11.478;2023-07-29T07:57:19;1.20;;;1.10;;
9178;SDS011;71287;48.414;11.478;2023-07-29T07:59:47;1.83;;;1.40;;
9178;SDS011;71287;48.414;11.478;2023-07-29T08:02:14;1.23;;;1.13;;
9178;SDS011;71287;48.414;11.478;2023-07-29T08:04:40;4.28;;;1.50;;
9178;SDS011;71287;48.414;11.478;2023-07-29T08:07:07;3.60;;;1.30;;
9178;SDS011;71287;48.414;11.478;2023-07-29T08:09:34;1.40;;;1.30;;
9178;SDS011;71287;48.414;11.478;2023-07-29T08:12:01;1.63;;;1.52;;
9178;SDS011;71287;48.414;11.478;2023-07-29T08:14:29;5.25;;;1.40;;
9178;SDS011;71287;48.414;11.478;2023-07-29T08:16:56;2.30;;;1.50;;
9178;SDS011;71287;48.414;11.478;2023-07-29T08:19:22;1.95;;;1.60;;
9178;SDS011;71287;48.414;11.478;2023-07-29T08:21:49;2.42;;;1.20;;
9178;SDS011;71287;48.414;11.478;2023-07-29T08:24:16;1.42;;;1.20;;
9178;SDS011;71287;48.414;11.478;2023-07-29T08:26:43;1.55;;;1.45;;
9178;SDS011;71287;48.414;11.478;2023-07-29T08:29:10;1.58;;;1.48;;
9178;SDS011;71287;48.414;11.478;2023-07-29T08:31:38;2.83;;;1.20;;
9178;SDS011;71287;48.414;11.478;2023-07-29T08:34:05;1.40;;;1.30;;
9178;SDS011;71287;48.414;11.478;2023-07-29T08:36:32;2.17;;;1.33;;
9178;SDS011;71287;48.414;11.478;2023-07-29T08:38:58;2.03;;;1.40;;
9178;SDS011;71287;48.414;11.478;2023-07-29T08:41:26;1.50;;;1.40;;
9178;SDS011;71287;48.414;11.478;2023-07-29T08:43:59;1.42;;;1.30;;
9178;SDS011;71287;48.414;11.478;2023-07-29T08:46:32;2.05;;;1.27;;
9178;SDS011;71287;48.414;11.478;2023-07-29T08:49:00;1.10;;;1.10;;
9178;SDS011;71287;48.414;11.478;2023-07-29T08:51:28;1.25;;;1.15;;
9178;SDS011;71287;48.414;11.478;2023-07-29T08:53:57;1.20;;;1.10;;
9178;SDS011;71287;48.414;11.478;2023-07-29T08:56:25;1.58;;;1.10;;
9178;SDS011;71287;48.414;11.478;2023-07-29T08:58:53;1.80;;;1.55;;
9178;SDS011;71287;48.414;11.478;2023-07-29T09:01:20;1.40;;;1.30;;
9178;SDS011;71287;48.414;11.478;2023-07-29T09:03:47;2.00;;;1.50;;
9178;SDS011;71287;48.414;11.478;2023-07-29T09:06:15;1.30;;;1.20;;
9178;SDS011;71287;48.414;11.478;2023-07-29T09:08:43;2.10;;;1.40;;
9178;SDS011;71287;48.414;11.478;2023-07-29T09:11:12;15.93;;;2.38;;
9178;SDS011;71287;48.414;11.478;2023-07-29T09:13:41;2.15;;;1.33;;
9178;SDS011;71287;48.414;11.478;2023-07-29T09:16:08;2.58;;;1.58;;
9178;SDS011;71287;48.414;11.478;2023-07-29T09:18:35;1.55;;;1.45;;
9178;SDS011;71287;48.414;11.478;2023-07-29T09:21:02;1.50;;;1.40;;
9178;SDS011;71287;48.414;11.478;2023-07-29T09:23:39;1.70;;;1.60;;
9178;SDS011;71287;48.414;11.478;2023-07-29T09:26:06;2.67;;;1.50;;
9178;SDS011;71287;48.414;11.478;2023-07-29T09:28:34;1.30;;;1.20;;
9178;SDS011;71287;48.414;11.478;2023-07-29T09:31:02;1.63;;;1.52;;
9178;SDS011;71287;48.414;11.478;2023-07-29T09:33:29;2.22;;;1.60;;
9178;SDS011;71287;48.414;11.478;2023-07-29T09:35:56;1.80;;;1.50;;
9178;SDS011;71287;48.414;11.478;2023-07-29T09:38:25;1.60;;;1.50;;
9178;SDS011;71287;48.414;11.478;2023-07-29T09:40:56;1.33;;;1.27;;
9178;SDS011;71287;48.414;11.478;2023-07-29T09:43:25;1.75;;;1.65;;
9178;SDS011;71287;48.414;11.478;2023-07-29T09:45:54;7.38;;;2.58;;
9178;SDS011;71287;48.414;11.478;2023-07-29T09:48:22;11.48;;;2.50;;
9178;SDS011;71287;48.414;11.478;2023-07-29T09:50:49;3.88;;;1.40;;
9178;SDS011;71287;48.414;11.478;2023-07-29T09:53:16;1.73;;;1.60;;
9178;SDS011;71287;48.414;11.478;2023-07-29T09:55:46;1.90;;;1.70;;
9178;SDS011;71287;48.414;11.478;2023-07-29T09:58:14;1.48;;;1.38;;
9178;SDS011;71287;48.414;11.478;2023-07-29T10:00:52;1.80;;;1.70;;
9178;SDS011;71287;48.414;11.478;2023-07-29T10:03:19;2.28;;;1.65;;
9178;SDS011;71287;48.414;11.478;2023-07-29T10:05:47;2.67;;;1.42;;
9178;SDS011;71287;48.414;11.478;2023-07-29T10:08:15;5.20;;;1.63;;
9178;SDS011;71287;48.414;11.478;2023-07-29T10:10:44;3.92;;;1.52;;
9178;SDS011;71287;48.414;11.478;2023-07-29T10:13:10;1.50;;;1.40;;
9178;SDS011;71287;48.414;11.478;2023-07-29T10:15:40;1.50;;;1.40;;
9178;SDS011;71287;48.414;11.478;2023-07-29T10:18:08;1.83;;;1.65;;
9178;SDS011;71287;48.414;11.478;2023-07-29T10:20:35;2.00;;;1.90;;
9178;SDS011;71287;48.414;11.478;2023-07-29T10:23:02;1.95;;;1.63;;
9178;SDS011;71287;48.414;11.478;2023-07-29T10:25:35;3.88;;;1.95;;
9178;SDS011;71287;48.414;11.478;2023-07-29T10:28:07;2.65;;;1.67;;
9178;SDS011;71287;48.414;11.478;2023-07-29T10:30:34;1.95;;;1.27;;
9178;SDS011;71287;48.414;11.478;2023-07-29T10:33:03;3.90;;;1.10;;
9178;SDS011;71287;48.414;11.478;2023-07-29T10:35:31;1.23;;;1.05;;
9178;SDS011;71287;48.414;11.478;2023-07-29T10:37:59;2.92;;;1.23;;
9178;SDS011;71287;48.414;11.478;2023-07-29T10:40:31;1.80;;;1.27;;
9178;SDS011;71287;48.414;11.478;2023-07-29T10:43:11;4.03;;;1.25;;
9178;SDS011;71287;48.414;11.478;2023-07-29T10:45:40;2.08;;;1.13;;
9178;SDS011;71287;48.414;11.478;2023-07-29T10:48:11;1.35;;;1.25;;
9178;SDS011;71287;48.414;11.478;2023-07-29T10:50:39;1.50;;;1.20;;
9178;SDS011;71287;48.414;11.478;2023-07-29T10:53:06;1.42;;;1.33;;
9178;SDS011;71287;48.414;11.478;2023-07-29T10:55:33;1.90;;;1.60;;
9178;SDS011;71287;48.414;11.478;2023-07-29T10:58:08;2.92;;;1.48;;
9178;SDS011;71287;48.414;11.478;2023-07-29T11:00:38;2.85;;;1.40;;
9178;SDS011;71287;48.414;11.478;2023-07-29T11:03:07;3.22;;;1.52;;
9178;SDS011;71287;48.414;11.478;2023-07-29T11:05:46;2.63;;;1.60;;
9178;SDS011;71287;48.414;11.478;2023-07-29T11:08:17;1.15;;;1.05;;
9178;SDS011;71287;48.414;11.478;2023-07-29T11:10:56;1.95;;;1.42;;
9178;SDS011;71287;48.414;11.478;2023-07-29T11:13:25;2.40;;;1.58;;
9178;SDS011;71287;48.414;11.478;2023-07-29T11:15:53;2.88;;;2.10;;
9178;SDS011;71287;48.414;11.478;2023-07-29T11:18:23;2.20;;;1.85;;
9178;SDS011;71287;48.414;11.478;2023-07-29T11:20:54;2.33;;;2.13;;
9178;SDS011;71287;48.414;11.478;2023-07-29T11:23:27;1.95;;;1.67;;
9178;SDS011;71287;48.414;11.478;2023-07-29T11:25:55;2.88;;;1.48;;
9178;SDS011;71287;48.414;11.478;2023-07-29T11:28:23;3.75;;;1.85;;
9178;SDS011;71287;48.414;11.478;2023-07-29T11:30:50;2.55;;;1.95;;
9178;SDS011;71287;48.414;11.478;2023-07-29T11:33:17;1.80;;;1.70;;
9178;SDS011;71287;48.414;11.478;2023-07-29T11:35:46;3.78;;;1.83;;
9178;SDS011;71287;48.414;11.478;2023-07-29T11:38:16;1.75;;;1.65;;
9178;SDS011;71287;48.414;11.478;2023-07-29T11:40:43;1.60;;;1.50;;
9178;SDS011;71287;48.414;11.478;2023-07-29T11:43:19;2.63;;;1.80;;
9178;SDS011;71287;48.414;11.478;2023-07-29T11:45:46;2.33;;;1.50;;
9178;SDS011;71287;48.414;11.478;2023-07-29T11:48:12;3.17;;;1.40;;
9178;SDS011;71287;48.414;11.478;2023-07-29T11:50:39;1.50;;;1.40;;
9178;SDS011;71287;48.414;11.478;2023-07-29T11:53:06;1.95;;;1.63;;
9178;SDS011;71287;48.414;11.478;2023-07-29T11:55:35;1.77;;;1.67;;
9178;SDS011;71287;48.414;11.478;2023-07-29T11:58:01;1.70;;;1.55;;
9178;SDS011;71287;48.414;11.478;2023-07-29T12:00:29;1.70;;;1.30;;
9178;SDS011;71287;48.414;11.478;2023-07-29T12:02:55;1.30;;;1.20;;
9178;SDS011;71287;48.414;11.478;2023-07-29T12:05:22;1.70;;;1.60;;
9178;SDS011;71287;48.414;11.478;2023-07-29T12:07:51;2.85;;;1.30;;
9178;SDS011;71287;48.414;11.478;2023-07-29T12:10:17;2.53;;;1.42;;
9178;SDS011;71287;48.414;11.478;2023-07-29T12:12:48;1.25;;;1.15;;
9178;SDS011;71287;48.414;11.478;2023-07-29T12:15:22;3.15;;;1.42;;
9178;SDS011;71287;48.414;11.478;2023-07-29T12:17:52;2.22;;;1.52;;
9178;SDS011;71287;48.414;11.478;2023-07-29T12:20:21;2.55;;;1.40;;
9178;SDS011;71287;48.414;11.478;2023-07-29T12:22:51;3.42;;;1.60;;
9178;SDS011;71287;48.414;11.478;2023-07-29T12:25:19;1.85;;;1.20;;
9178;SDS011;71287;48.414;11.478;2023-07-29T12:27:47;2.47;;;1.60;;
9178;SDS011;71287;48.414;11.478;2023-07-29T12:30:14;2.15;;;1.48;;
9178;SDS011;71287;48.414;11.478;2023-07-29T12:32:45;1.55;;;1.35;;
9178;SDS011;71287;48.414;11.478;2023-07-29T12:35:12;2.35;;;1.50;;
9178;SDS011;71287;48.414;11.478;2023-07-29T12:37:40;1.58;;;1.38;;
9178;SDS011;71287;48.414;11.478;2023-07-29T12:40:08;2.85;;;1.70;;
9178;SDS011;71287;48.414;11.478;2023-07-29T12:42:48;1.55;;;1.45;;
9178;SDS011;71287;48.414;11.478;2023-07-29T12:45:15;2.00;;;1.58;;
9178;SDS011;71287;48.414;11.478;2023-07-29T12:47:42;1.50;;;1.40;;
9178;SDS011;71287;48.414;11.478;2023-07-29T12:50:09;2.17;;;1.42;;
9178;SDS011;71287;48.414;11.478;2023-07-29T12:52:36;1.38;;;1.25;;
9178;SDS011;71287;48.414;11.478;2023-07-29T12:55:03;1.55;;;1.38;;
9178;SDS011;71287;48.414;11.478;2023-07-29T12:57:31;1.65;;;1.55;;
9178;SDS011;71287;48.414;11.478;2023-07-29T12:59:59;1.63;;;1.50;;
9178;SDS011;71287;48.414;11.478;2023-07-29T13:02:26;1.23;;;1.23;;
9178;SDS011;71287;48.414;11.478;2023-07-29T13:04:52;1.88;;;1.50;;
9178;SDS011;71287;48.414;11.478;2023-07-29T13:07:19;1.52;;;1.42;;
9178;SDS011;71287;48.414;11.478;2023-07-29T13:09:46;1.35;;;1.25;;
9178;SDS011;71287;48.414;11.478;2023-07-29T13:12:12;1.30;;;1.20;;
9178;SDS011;71287;48.414;11.478;2023-07-29T13:14:39;1.27;;;1.17;;
9178;SDS011;71287;48.414;11.478;2023-07-29T13:17:07;1.67;;;1.23;;
9178;SDS011;71287;48.414;11.478;2023-07-29T13:19:34;1.30;;;1.30;;
9178;SDS011;71287;48.414;11.478;2023-07-29T13:22:01;2.35;;;1.30;;
9178;SDS011;71287;48.414;11.478;2023-07-29T13:24:28;1.50;;;1.40;;
9178;SDS011;71287;48.414;11.478;2023-07-29T13:26:55;1.10;;;1.10;;
9178;SDS011;71287;48.414;11.478;2023-07-29T13:29:21;1.23;;;1.13;;
9178;SDS011;71287;48.414;11.478;2023-07-29T13:31:48;1.67;;;1.50;;
9178;SDS011;71287;48.414;11.478;2023-07-29T13:34:16;1.40;;;1.30;;
9178;SDS011;71287;48.414;11.478;2023-07-29T13:36:43;1.88;;;1.20;;
9178;SDS011;71287;48.414;11.478;2023-07-29T13:39:10;1.33;;;1.23;;
9178;SDS011;71287;48.414;11.478;2023-07-29T13:41:36;2.67;;;1.45;;
9178;SDS011;71287;48.414;11.478;2023-07-29T13:44:03;1.63;;;1.35;;
9178;SDS011;71287;48.414;11.478;2023-07-29T13:46:30;1.63;;;1.52;;
9178;SDS011;71287;48.414;11.478;2023-07-29T13:48:57;1.42;;;1.33;;
9178;SDS011;71287;48.414;11.478;2023-07-29T13:51:25;1.50;;;1.40;;
9178;SDS011;71287;48.414;11.478;2023-07-29T13:53:52;1.30;;;1.23;;
9178;SDS011;71287;48.414;11.478;2023-07-29T13:56:19;2.08;;;1.23;;
9178;SDS011;71287;48.414;11.478;2023-07-29T13:58:46;1.30;;;1.20;;
9178;SDS011;71287;48.414;11.478;2023-07-29T14:01:12;1.30;;;1.20;;
9178;SDS011;71287;48.414;11.478;2023-07-29T14:03:39;1.25;;;1.15;;
9178;SDS011;71287;48.414;11.478;2023-07-29T14:06:06;1.38;;;1.27;;
9178;SDS011;71287;48.414;11.478;2023-07-29T14:08:34;1.35;;;1.00;;
9178;SDS011;71287;48.414;11.478;2023-07-29T14:11:01;1.17;;;1.00;;
9178;SDS011;71287;48.414;11.478;2023-07-29T14:13:28;3.03;;;1.25;;
9178;SDS011;71287;48.414;11.478;2023-07-29T14:15:54;1.67;;;1.15;;
9178;SDS011;71287;48.414;11.478;2023-07-29T14:18:21;1.35;;;1.15;;
9178;SDS011;71287;48.414;11.478;2023-07-29T14:20:48;1.27;;;1.17;;
9178;SDS011;71287;48.414;11.478;2023-07-29T14:23:16;1.20;;;1.10;;
9178;SDS011;71287;48.414;11.478;2023-07-29T14:25:44;0.90;;;0.90;;
9178;SDS011;71287;48.414;11.478;2023-07-29T14:28:12;1.05;;;1.05;;
9178;SDS011;71287;48.414;11.478;2023-07-29T14:30:40;2.67;;;1.08;;
9178;SDS011;71287;48.414;11.478;2023-07-29T14:33:07;1.10;;;1.10;;
9178;SDS011;71287;48.414;11.478;2023-07-29T14:35:33;1.95;;;1.85;;
9178;SDS011;71287;48.414;11.478;2023-07-29T14:38:00;2.05;;;1.63;;
9178;SDS011;71287;48.414;11.478;2023-07-29T14:40:27;1.98;;;1.48;;
9178;SDS011;71287;48.414;11.478;2023-07-29T14:42:55;1.10;;;1.00;;
9178;SDS011;71287;48.414;11.478;2023-07-29T14:45:22;2.30;;;1.60;;
9178;SDS011;71287;48.414;11.478;2023-07-29T14:47:49;1.42;;;1.33;;
9178;SDS011;71287;48.414;11.478;2023-07-29T14:50:15;1.15;;;1.05;;